Weather at Latrobe Valley Airport

Public forecast

Using degrees Celsius for public forecast. Weather courtesy of forecast.io.

Closest aviation weather report (METAR) to Latrobe Valley Airport

Closest report is Melbourne International Airport, 83.6 nm (154.8 km) WNW.

2024/04/12 16:30 (retrieved 29 minutes ago)

YMML 121630Z 30004KT 9999 BKN047 11/10 Q1022

Closest aviation forecast (TAF) to Latrobe Valley Airport

Closest forecast is Melbourne International Airport, 83.6 nm (154.8 km) WNW.

2024/04/12 15:52 (retrieved 1 hour ago)

TAF YMML 121404Z 1215/1318 27006KT 9999 -SHRA FEW020 BKN045 FM130000 20008KT 9999 NSW SCT025 BKN035 FM131300 34006KT 9999 SCT025